Flight Track Log - Related Links

Times and Time Zones

All times are in EDT time to prevent confusion due to time zone crossing. See the SWA542 flight status page for this flight to view local times or setup timezone preferences in your user account.

Time Position Orientation Groundspeed Altitude Reporting Facility
EDT Latitude Longitude Course Direction KTS MPH feet Rate Location/Type
Mon 12:15:27 AM 37.7167 -122.2500 335° Northwest 138 159 1,200  Level Northern Cal TRACON
Mon 12:15:56 AM 37.7311 -122.2583 335° Northwest 128 147 1,900 1,800 Climbing Oakland Center
Mon 12:16:57 AM 37.7322 -122.3178 271° West 178 205 3,900 2,331 Climbing Oakland Center
Mon 12:17:57 AM 37.6725 -122.3642 212° Southwest 248 285 6,600 3,375 Climbing Oakland Center
Mon 12:18:33 AM 37.6333 -122.4000 216° Southwest 286 329 9,300 3,738 Climbing Northern Cal TRACON
Mon 12:18:58 AM 37.6028 -122.4117 197° South 278 320 10,400 3,070 Climbing Oakland Center
Mon 12:19:59 AM 37.5197 -122.4675 208° Southwest 335 386 13,700 3,295 Climbing Oakland Center
Mon 12:21:00 AM 37.4361 -122.5253 209° Southwest 343 395 17,100 2,803 Climbing Oakland Center
Mon 12:22:01 AM 37.3461 -122.5861 208° Southwest 364 419 19,400 2,328 Climbing Oakland Center
Mon 12:24:03 AM 37.1178 -122.6206 187° South 464 534 24,200 2,538 Climbing Oakland Center
Mon 12:25:03 AM 36.9681 -122.5542 160° South 479 551 27,100 2,331 Climbing Oakland Center
Mon 12:26:04 AM 36.8603 -122.4453 141° Southeast 497 572 28,900 2,016 Climbing Oakland Center
Mon 12:27:05 AM 36.7511 -122.3344 141° Southeast 507 583 31,200 2,213 Climbing Oakland Center
Mon 12:28:06 AM 36.6447 -122.2253 141° Southeast 499 574 33,400 1,770 Climbing Oakland Center
Mon 12:29:07 AM 36.5364 -122.1206 142° Southeast 495 570 34,800 1,328 Climbing Oakland Center
Mon 12:30:08 AM 36.4272 -122.0139 142° Southeast 499 574 36,100 1,279 Climbing Oakland Center
Mon 12:31:09 AM 36.3175 -121.9042 141° Southeast 505 581 37,400 1,279 Climbing Oakland Center
Mon 12:32:10 AM 36.1972 -121.7839 141° Southeast 507 583 38,700 787 Climbing Oakland Center
Mon 12:33:11 AM 36.0878 -121.6750 141° Southeast 505 581 39,000 149 Climbing Oakland Center
Mon 12:34:11 AM 35.9775 -121.5672 142° Southeast 507 583 39,000  Level Oakland Center
Mon 12:35:12 AM 35.8667 -121.4597 142° Southeast 507 583 39,000  Level Oakland Center
Mon 12:36:13 AM 35.7544 -121.3547 143° Southeast 508 585 39,000  Level Oakland Center
Mon 12:37:14 AM 35.6450 -121.2464 141° Southeast 506 582 39,000  Level Oakland Center
Mon 12:38:15 AM 35.5353 -121.1394 142° Southeast 507 583 39,000  Level Oakland Center
Mon 12:39:16 AM 35.4422 -121.0086 131° Southeast 513 590 39,000  Level Oakland Center
Mon 12:40:17 AM 35.3611 -120.8656 125° Southeast 515 593 39,000  Level Oakland Center
Mon 12:41:18 AM 35.2800 -120.7233 125° Southeast 514 592 39,000  Level Oakland Center
Mon 12:42:20 AM 35.1867 -120.5597 125° Southeast 511 588 39,000  Level Los Angeles Center
Mon 12:43:22 AM 35.1061 -120.4172 125° Southeast 508 585 39,000  Level Los Angeles Center
Mon 12:44:23 AM 35.0250 -120.2756 125° Southeast 506 582 39,000  Level Los Angeles Center
Mon 12:45:25 AM 34.9442 -120.1353 125° Southeast 504 580 39,000  Level Los Angeles Center
Mon 12:46:26 AM 34.8664 -120.0014 125° Southeast 502 578 39,000  Level Los Angeles Center
Mon 12:47:27 AM 34.7703 -119.8367 125° Southeast 502 578 39,000  Level Los Angeles Center
Mon 12:48:29 AM 34.6894 -119.6972 125° Southeast 506 582 39,000  Level Los Angeles Center
Mon 12:49:30 AM 34.6081 -119.5594 126° Southeast 504 580 39,000  Level Los Angeles Center
Mon 12:50:32 AM 34.5336 -119.4353 126° Southeast 505 581 39,000  Level Los Angeles Center
Mon 12:51:33 AM 34.4525 -119.2983 126° Southeast 501 577 39,000  Level Los Angeles Center
Mon 12:52:35 AM 34.3550 -119.1342 126° Southeast 500 575 39,000  Level Los Angeles Center
Mon 12:53:36 AM 34.2742 -118.9989 126° Southeast 498 573 39,000  Level Los Angeles Center
Mon 12:54:37 AM 34.1933 -118.8633 126° Southeast 498 573 39,000  Level Los Angeles Center
Mon 12:55:38 AM 34.1125 -118.7292 126° Southeast 493 567 39,000  Level Los Angeles Center
Mon 12:56:40 AM 34.0314 -118.5956 126° Southeast 494 568 39,000 -732 Level Los Angeles Center
Mon 12:57:41 AM 33.9517 -118.4628 126° Southeast 489 563 37,500 -2,410 Descending Los Angeles Center
Mon 12:58:42 AM 33.8644 -118.3425 131° Southeast 476 548 34,100 -3,122 Descending Los Angeles Center
Mon 12:59:44 AM 33.7733 -118.2322 135° Southeast 481 554 31,100 -2,829 Descending Los Angeles Center
Mon 01:00:45 AM 33.6744 -118.1017 132° Southeast 484 557 28,300 -2,585 Descending Los Angeles Center
Mon 01:01:47 AM 33.5847 -117.9881 133° Southeast 470 541 25,800 -2,146 Descending Los Angeles Center
Mon 01:02:48 AM 33.4983 -117.8797 134° Southeast 454 522 23,900 -1,984 Descending Los Angeles Center
Mon 01:03:51 AM 33.4142 -117.7742 134° Southeast 441 507 21,700 -2,354 Descending Los Angeles Center
Mon 01:04:07 AM 33.3833 -117.7333 132° Southeast 427 491 20,800 -2,100 Descending Southern California TRACON
Mon 01:04:51 AM 33.3336 -117.6708 134° Southeast 427 491 19,600 -2,171 Descending Los Angeles Center
Mon 01:05:52 AM 33.2386 -117.5550 134° Southeast 409 471 17,000 -2,368 Descending Los Angeles Center
Mon 01:06:07 AM 33.2167 -117.5333 140° Southeast 411 473 16,600 -2,000 Descending Southern California TRACON
Mon 01:07:07 AM 33.1167 -117.4500 145° Southeast 393 452 14,500 -1,895 Descending Southern California TRACON
Mon 01:08:01 AM 33.0500 -117.4000 148° Southeast 378 435 13,000 -1,667 Descending Southern California TRACON
Mon 01:08:55 AM 32.9667 -117.3333 146° Southeast 361 415 11,500 -1,158 Descending Southern California TRACON
Mon 01:09:55 AM 32.8833 -117.2667 146° Southeast 324 373 10,800 -1,000 Descending Southern California TRACON
Mon 01:10:55 AM 32.8333 -117.2000 132° Southeast 324 373 9,500 -1,350 Descending Southern California TRACON
Mon 01:11:55 AM 32.8000 -117.1000 112° Southeast 307 353 8,100 -1,400 Descending Southern California TRACON
Mon 01:12:55 AM 32.7667 -117.0167 115° Southeast 285 328 6,700 -1,050 Descending Southern California TRACON
Mon 01:13:55 AM 32.7333 -116.9333 115° Southeast 250 288 6,000 -694 Descending Southern California TRACON
Mon 01:14:56 AM 32.6833 -116.9500 196° South 212 244 5,300 -1,041 Descending Southern California TRACON
Mon 01:15:56 AM 32.6833 -117.0000 270° West 168 193 3,900 -1,500 Descending Southern California TRACON
Mon 01:16:56 AM 32.7000 -117.0500 292° West 162 186 2,300 -1,300 Descending Southern California TRACON
Mon 01:17:56 AM 32.7167 -117.1000 292° West 141 162 1,300 -789 Descending Southern California TRACON
Mon 01:18:50 AM 32.7167 -117.1333 270° West 134 154 800 -560 Descending Southern California TRACON
Mon 01:19:11 AM 32.7250 -117.1508 300° West 140 161 600 -361 Descending Los Angeles Center
Mon 01:20:13 AM 32.7347 -117.1914 286° West 140 161 300 -290 Descending Los Angeles Center
Mon 01:22:00 AM 32.7336 -117.1897 110° East  Level Estimated

Login

Don't have an account? Register now (free) for customized features, flight alerts, and more!